createdAt,value
2023-05-22T00:00:21.453Z,51.69
2023-05-22T00:00:52.904Z,51.61
2023-05-22T00:01:24.364Z,50.92
2023-05-22T00:01:55.822Z,51.79
2023-05-22T00:02:27.356Z,51.31
2023-05-22T00:02:59.059Z,50.96
2023-05-22T00:03:30.730Z,51.20
2023-05-22T00:04:02.210Z,50.97
2023-05-22T00:04:33.664Z,50.84
2023-05-22T00:05:05.143Z,51.48
2023-05-22T00:05:36.698Z,51.00
2023-05-22T00:06:08.210Z,51.09
2023-05-22T00:06:39.641Z,51.30
2023-05-22T00:07:11.079Z,51.31
2023-05-22T00:07:42.526Z,51.68
2023-05-22T00:08:14.083Z,51.46
2023-05-22T00:08:45.559Z,51.05
2023-05-22T00:09:17.011Z,51.50
2023-05-22T00:09:48.452Z,51.17
2023-05-22T00:10:19.888Z,51.18
2023-05-22T00:10:51.323Z,51.84
2023-05-22T00:11:22.766Z,51.17
2023-05-22T00:11:54.239Z,50.86
2023-05-22T00:12:25.682Z,51.29
2023-05-22T00:12:57.123Z,51.41
2023-05-22T00:13:28.572Z,51.29
2023-05-22T00:14:00.072Z,51.22
2023-05-22T00:14:31.545Z,51.22
2023-05-22T00:15:02.994Z,51.23
2023-05-22T00:15:34.486Z,51.23
2023-05-22T00:16:05.926Z,51.35
2023-05-22T00:16:37.482Z,51.11
2023-05-22T00:17:09.041Z,51.29
2023-05-22T00:17:40.540Z,51.19
2023-05-22T00:18:12.041Z,51.29
2023-05-22T00:18:43.560Z,50.96
2023-05-22T00:19:15.074Z,51.37
2023-05-22T00:19:46.551Z,50.91
2023-05-22T00:20:17.988Z,51.79
2023-05-22T00:20:49.421Z,51.14
2023-05-22T00:21:20.859Z,51.50
2023-05-22T00:21:52.295Z,51.56
2023-05-22T00:22:23.731Z,51.43
2023-05-22T00:22:55.179Z,51.63
2023-05-22T00:23:26.669Z,50.99
2023-05-22T00:23:58.100Z,51.53
2023-05-22T00:24:29.580Z,51.98
2023-05-22T00:25:01.032Z,51.32
2023-05-22T00:25:32.472Z,51.84
2023-05-22T00:26:03.902Z,51.72
2023-05-22T00:26:35.349Z,51.68
2023-05-22T00:27:06.781Z,51.11
2023-05-22T00:27:38.216Z,51.57
2023-05-22T00:28:09.689Z,51.06
2023-05-22T00:28:41.125Z,51.05
2023-05-22T00:29:12.566Z,51.00
2023-05-22T00:29:44.036Z,51.44
2023-05-22T00:30:15.471Z,51.53
2023-05-22T00:30:46.917Z,51.23
2023-05-22T00:31:18.373Z,51.86
2023-05-22T00:31:49.860Z,51.42
2023-05-22T00:32:21.312Z,51.21
2023-05-22T00:32:52.786Z,51.58
2023-05-22T00:33:24.228Z,51.63
2023-05-22T00:33:55.742Z,51.45
2023-05-22T00:34:27.296Z,51.37
2023-05-22T00:34:58.887Z,51.19
2023-05-22T00:35:30.326Z,51.20
2023-05-22T00:36:01.768Z,51.06
2023-05-22T00:36:33.200Z,51.57
2023-05-22T00:37:04.639Z,51.36
2023-05-22T00:37:36.077Z,51.27
2023-05-22T00:38:07.533Z,51.51
2023-05-22T00:38:38.976Z,51.64
2023-05-22T00:39:10.417Z,51.44
2023-05-22T00:39:41.856Z,50.96
2023-05-22T00:40:13.337Z,51.35
2023-05-22T00:40:44.792Z,51.06
2023-05-22T00:41:16.230Z,51.18
2023-05-22T00:41:47.687Z,51.04
2023-05-22T00:42:19.129Z,51.02
2023-05-22T00:42:50.580Z,51.31
2023-05-22T00:43:22.033Z,50.93
2023-05-22T00:43:53.489Z,51.66
2023-05-22T00:44:24.932Z,51.21
2023-05-22T00:44:56.388Z,51.32
2023-05-22T00:45:28.007Z,51.20
2023-05-22T00:45:59.452Z,51.15
2023-05-22T00:46:30.912Z,51.10
2023-05-22T00:47:02.524Z,50.93
2023-05-22T00:47:34.120Z,51.09
2023-05-22T00:48:05.643Z,51.34
2023-05-22T00:48:37.082Z,50.93
2023-05-22T00:49:08.515Z,51.02
2023-05-22T00:49:39.946Z,51.26
2023-05-22T00:50:11.381Z,51.18
2023-05-22T00:50:42.847Z,50.93
2023-05-22T00:51:14.295Z,51.57
2023-05-22T00:51:45.789Z,50.99
2023-05-22T00:52:17.256Z,51.30
2023-05-22T00:52:48.701Z,51.37
2023-05-22T00:53:20.146Z,51.01
2023-05-22T00:53:51.587Z,50.88
2023-05-22T00:54:23.031Z,51.13
2023-05-22T00:54:54.466Z,51.11
2023-05-22T00:55:25.975Z,51.32
2023-05-22T00:55:57.452Z,51.26
2023-05-22T00:56:28.894Z,51.39
2023-05-22T00:57:00.357Z,50.71
2023-05-22T00:57:31.813Z,51.09
2023-05-22T00:58:03.253Z,51.10
2023-05-22T00:58:34.685Z,51.06
2023-05-22T00:59:06.131Z,50.87
2023-05-22T00:59:37.569Z,51.17
2023-05-22T01:00:09.013Z,50.90
2023-05-22T01:00:40.753Z,51.30
2023-05-22T01:01:12.463Z,50.66
2023-05-22T01:01:43.910Z,51.39
2023-05-22T01:02:15.441Z,50.88
2023-05-22T01:02:47.125Z,51.02
2023-05-22T01:03:18.736Z,51.19
2023-05-22T01:03:50.291Z,50.69
2023-05-22T01:04:21.788Z,50.91
2023-05-22T01:04:53.221Z,50.92
2023-05-22T01:05:24.664Z,50.90
2023-05-22T01:05:56.100Z,51.02
2023-05-22T01:06:27.580Z,51.01
2023-05-22T01:06:59.028Z,50.62
2023-05-22T01:07:30.463Z,51.15
2023-05-22T01:08:01.899Z,50.94
2023-05-22T01:08:33.425Z,50.84
2023-05-22T01:09:04.876Z,50.68
2023-05-22T01:09:36.322Z,51.18
2023-05-22T01:10:07.751Z,50.76
2023-05-22T01:10:39.388Z,51.35
2023-05-22T01:11:10.917Z,50.65
2023-05-22T01:11:42.398Z,51.02
2023-05-22T01:12:13.829Z,50.88
2023-05-22T01:12:45.286Z,50.59
2023-05-22T01:13:16.737Z,51.29
2023-05-22T01:13:48.172Z,51.21
2023-05-22T01:14:19.604Z,51.03
2023-05-22T01:14:51.040Z,50.77
2023-05-22T01:15:22.488Z,50.70
2023-05-22T01:15:53.988Z,51.18
2023-05-22T01:16:25.575Z,50.90
2023-05-22T01:16:57.128Z,51.10
2023-05-22T01:17:28.638Z,50.79
2023-05-22T01:18:00.287Z,50.78
2023-05-22T01:18:31.799Z,51.20
2023-05-22T01:19:03.274Z,51.24
2023-05-22T01:19:34.757Z,50.79
2023-05-22T01:20:06.257Z,51.10
2023-05-22T01:20:37.874Z,51.01
2023-05-22T01:21:09.549Z,50.62
2023-05-22T01:21:40.984Z,50.87
2023-05-22T01:22:12.471Z,50.90
2023-05-22T01:22:43.908Z,50.70
2023-05-22T01:23:15.350Z,51.00
2023-05-22T01:23:46.791Z,50.88
2023-05-22T01:24:18.223Z,51.25
2023-05-22T01:24:49.664Z,51.37
2023-05-22T01:25:21.152Z,51.07
2023-05-22T01:25:52.612Z,50.76
2023-05-22T01:26:24.062Z,51.10
2023-05-22T01:26:55.512Z,50.64
2023-05-22T01:27:27.000Z,50.75
2023-05-22T01:27:58.441Z,51.29
2023-05-22T01:28:29.920Z,51.06
2023-05-22T01:29:01.361Z,51.36
2023-05-22T01:29:32.805Z,51.49
2023-05-22T01:30:04.541Z,51.59
2023-05-22T01:30:36.162Z,50.96
2023-05-22T01:31:07.626Z,51.26
2023-05-22T01:31:39.071Z,51.25
2023-05-22T01:32:10.517Z,51.73
2023-05-22T01:32:42.022Z,51.29
2023-05-22T01:33:13.612Z,51.34
2023-05-22T01:33:45.258Z,51.58
2023-05-22T01:34:16.731Z,51.26
2023-05-22T01:34:48.167Z,51.25
2023-05-22T01:35:19.606Z,51.11
2023-05-22T01:35:51.069Z,51.26
2023-05-22T01:36:22.550Z,51.28
2023-05-22T01:36:54.001Z,51.44
2023-05-22T01:37:25.445Z,51.28
2023-05-22T01:37:56.925Z,51.26
2023-05-22T01:38:28.422Z,51.28
2023-05-22T01:38:59.870Z,51.16
2023-05-22T01:39:31.312Z,51.45
2023-05-22T01:40:02.785Z,51.16
2023-05-22T01:40:34.234Z,51.26
2023-05-22T01:41:05.678Z,51.54
2023-05-22T01:41:37.106Z,51.41
2023-05-22T01:42:08.564Z,51.52
2023-05-22T01:42:40.001Z,51.21
2023-05-22T01:43:11.473Z,51.48
2023-05-22T01:43:42.911Z,51.08
2023-05-22T01:44:14.366Z,51.32
2023-05-22T01:44:45.812Z,51.62
2023-05-22T01:45:17.248Z,51.39
2023-05-22T01:45:48.723Z,51.03
2023-05-22T01:46:20.325Z,51.54
2023-05-22T01:46:51.869Z,51.71
2023-05-22T01:47:23.408Z,51.14
2023-05-22T01:47:54.974Z,51.46
2023-05-22T01:48:26.479Z,51.26
2023-05-22T01:48:57.945Z,51.00
2023-05-22T01:49:29.395Z,51.02
2023-05-22T01:50:00.845Z,51.41
2023-05-22T01:50:32.293Z,51.08
2023-05-22T01:51:03.736Z,51.54
2023-05-22T01:51:35.186Z,51.39
2023-05-22T01:52:06.658Z,51.42
2023-05-22T01:52:38.102Z,51.49
2023-05-22T01:53:09.556Z,51.39
2023-05-22T01:53:41.003Z,51.35
2023-05-22T01:54:12.559Z,51.17
2023-05-22T01:54:44.021Z,50.97
2023-05-22T01:55:15.474Z,51.34
2023-05-22T01:55:46.973Z,51.18
2023-05-22T01:56:18.403Z,51.28
2023-05-22T01:56:49.886Z,50.86
2023-05-22T01:57:21.340Z,51.39
2023-05-22T01:57:52.788Z,51.15
2023-05-22T01:58:24.218Z,51.18
2023-05-22T01:58:55.721Z,51.30
2023-05-22T01:59:27.177Z,51.42
2023-05-22T01:59:58.621Z,51.04
2023-05-22T02:00:30.071Z,51.20
2023-05-22T02:01:01.630Z,50.86
2023-05-22T02:01:33.202Z,50.91
2023-05-22T02:02:05.081Z,50.93
2023-05-22T02:02:36.653Z,50.93
2023-05-22T02:03:08.277Z,50.96
2023-05-22T02:03:39.902Z,51.27
2023-05-22T02:04:11.411Z,51.26
2023-05-22T02:04:42.920Z,50.70
2023-05-22T02:05:14.365Z,50.96
2023-05-22T02:05:45.812Z,51.04
2023-05-22T02:06:17.262Z,50.90
2023-05-22T02:06:48.711Z,50.90
2023-05-22T02:07:20.154Z,50.96
2023-05-22T02:07:51.616Z,50.80
2023-05-22T02:08:23.073Z,50.92
2023-05-22T02:08:54.510Z,50.82
2023-05-22T02:09:25.955Z,50.97
2023-05-22T02:09:57.434Z,50.91
2023-05-22T02:10:28.880Z,50.70
2023-05-22T02:11:00.332Z,50.92
2023-05-22T02:11:31.785Z,51.21
2023-05-22T02:12:03.317Z,51.20
2023-05-22T02:12:34.793Z,51.13
2023-05-22T02:13:06.260Z,50.76
2023-05-22T02:13:37.691Z,51.29
2023-05-22T02:14:09.144Z,51.07
2023-05-22T02:14:40.607Z,50.96
2023-05-22T02:15:12.057Z,51.04
2023-05-22T02:15:43.533Z,50.86
2023-05-22T02:16:15.027Z,51.06
2023-05-22T02:16:46.518Z,51.22
2023-05-22T02:17:17.955Z,51.18
2023-05-22T02:17:49.473Z,50.73
2023-05-22T02:18:20.991Z,51.28
2023-05-22T02:18:52.509Z,50.92
2023-05-22T02:19:23.989Z,50.87
2023-05-22T02:19:55.457Z,50.90
2023-05-22T02:20:26.953Z,50.89
2023-05-22T02:20:58.415Z,50.76
2023-05-22T02:21:29.857Z,50.92
2023-05-22T02:22:01.324Z,51.01
2023-05-22T02:22:32.772Z,50.91
2023-05-22T02:23:04.212Z,50.91
2023-05-22T02:23:35.654Z,50.53
2023-05-22T02:24:07.111Z,51.21
2023-05-22T02:24:38.769Z,50.91
2023-05-22T02:25:10.222Z,50.84
2023-05-22T02:25:41.700Z,50.94
2023-05-22T02:26:13.165Z,51.07
2023-05-22T02:26:44.617Z,50.81
2023-05-22T02:27:16.091Z,50.75
2023-05-22T02:27:47.561Z,50.65
2023-05-22T02:28:18.990Z,50.69
2023-05-22T02:28:50.442Z,50.68
2023-05-22T02:29:21.877Z,50.75
2023-05-22T02:29:53.324Z,50.86
2023-05-22T02:30:24.760Z,50.88
2023-05-22T02:30:56.278Z,50.73
2023-05-22T02:31:27.832Z,51.11
2023-05-22T02:31:59.352Z,50.97
2023-05-22T02:32:30.817Z,51.04
2023-05-22T02:33:02.284Z,51.06
2023-05-22T02:33:33.750Z,50.86
2023-05-22T02:34:05.213Z,51.03
2023-05-22T02:34:36.720Z,50.77
2023-05-22T02:35:08.189Z,50.66
2023-05-22T02:35:39.658Z,50.80
2023-05-22T02:36:11.136Z,50.69
2023-05-22T02:36:42.586Z,51.03
2023-05-22T02:37:14.022Z,51.17
2023-05-22T02:37:45.468Z,50.66
2023-05-22T02:38:16.903Z,50.86
2023-05-22T02:38:48.348Z,51.12
2023-05-22T02:39:19.794Z,50.79
2023-05-22T02:39:51.227Z,51.13
2023-05-22T02:40:22.690Z,50.76
2023-05-22T02:40:54.136Z,50.73
2023-05-22T02:41:25.594Z,50.89
2023-05-22T02:41:57.027Z,50.96
2023-05-22T02:42:28.471Z,50.74
2023-05-22T02:43:00.036Z,50.89
2023-05-22T02:43:31.463Z,50.63
2023-05-22T02:44:02.892Z,50.78
2023-05-22T02:44:34.348Z,50.70
2023-05-22T02:45:05.806Z,51.02
2023-05-22T02:45:37.254Z,51.07
2023-05-22T02:46:08.703Z,50.77
2023-05-22T02:46:40.282Z,50.82
2023-05-22T02:47:11.761Z,50.84
2023-05-22T02:47:43.281Z,50.57
2023-05-22T02:48:14.760Z,50.63
2023-05-22T02:48:46.249Z,50.47
2023-05-22T02:49:17.713Z,51.24
2023-05-22T02:49:49.178Z,50.55
2023-05-22T02:50:20.648Z,50.96
2023-05-22T02:50:52.094Z,51.14
2023-05-22T02:51:23.543Z,50.70
2023-05-22T02:51:54.984Z,50.53
2023-05-22T02:52:26.413Z,50.43
2023-05-22T02:52:57.856Z,50.72
2023-05-22T02:53:29.284Z,50.71
2023-05-22T02:54:00.737Z,50.96
2023-05-22T02:54:32.165Z,50.59
2023-05-22T02:55:03.654Z,50.55
2023-05-22T02:55:35.090Z,51.04
2023-05-22T02:56:06.559Z,50.86
2023-05-22T02:56:38.112Z,51.22
2023-05-22T02:57:09.606Z,51.11
2023-05-22T02:57:41.054Z,50.80
2023-05-22T02:58:12.491Z,50.58
2023-05-22T02:58:43.952Z,50.88
2023-05-22T02:59:15.392Z,50.89
2023-05-22T02:59:46.844Z,51.02
2023-05-22T03:00:18.292Z,51.16
2023-05-22T03:00:49.731Z,50.97
2023-05-22T03:01:21.191Z,50.92
2023-05-22T03:01:52.702Z,51.08
2023-05-22T03:02:24.271Z,50.74
2023-05-22T03:02:55.789Z,50.82
2023-05-22T03:03:27.405Z,51.07
2023-05-22T03:03:59.071Z,50.71
2023-05-22T03:04:30.582Z,50.65
2023-05-22T03:05:02.073Z,50.73
2023-05-22T03:05:33.534Z,50.99
2023-05-22T03:06:04.971Z,50.74
2023-05-22T03:06:36.411Z,50.94
2023-05-22T03:07:07.870Z,50.85
2023-05-22T03:07:39.339Z,50.75
2023-05-22T03:08:10.781Z,51.25
2023-05-22T03:08:42.220Z,50.61
2023-05-22T03:09:13.671Z,50.77
2023-05-22T03:09:45.128Z,50.86
2023-05-22T03:10:16.576Z,51.13
2023-05-22T03:10:48.010Z,50.61
2023-05-22T03:11:19.448Z,50.78
2023-05-22T03:11:50.894Z,50.83
2023-05-22T03:12:22.352Z,51.13
2023-05-22T03:12:53.803Z,51.01
2023-05-22T03:13:25.252Z,50.81
2023-05-22T03:13:56.702Z,50.86
2023-05-22T03:14:28.135Z,50.90
2023-05-22T03:14:59.572Z,50.76
2023-05-22T03:15:31.018Z,50.76
2023-05-22T03:16:02.489Z,51.10
2023-05-22T03:16:33.994Z,51.14
2023-05-22T03:17:05.439Z,50.69
2023-05-22T03:17:36.944Z,51.01
2023-05-22T03:18:08.485Z,50.98
2023-05-22T03:18:39.957Z,50.89
2023-05-22T03:19:11.478Z,50.93
2023-05-22T03:19:42.969Z,50.84
2023-05-22T03:20:14.418Z,50.86
2023-05-22T03:20:45.873Z,50.81
2023-05-22T03:21:17.315Z,50.65
2023-05-22T03:21:48.763Z,50.66
2023-05-22T03:22:20.201Z,50.78
2023-05-22T03:22:51.689Z,51.22
2023-05-22T03:23:23.137Z,50.64
2023-05-22T03:23:54.575Z,50.59
2023-05-22T03:24:26.050Z,50.84
2023-05-22T03:24:57.498Z,51.08
2023-05-22T03:25:28.996Z,50.84
2023-05-22T03:26:00.456Z,51.01
2023-05-22T03:26:31.907Z,51.26
2023-05-22T03:27:03.376Z,51.05
2023-05-22T03:27:34.827Z,51.38
2023-05-22T03:28:06.300Z,50.69
2023-05-22T03:28:37.828Z,51.06
2023-05-22T03:29:09.335Z,50.76
2023-05-22T03:29:40.853Z,50.69
2023-05-22T03:30:12.299Z,50.88
2023-05-22T03:30:43.746Z,51.13
2023-05-22T03:31:15.194Z,50.72
2023-05-22T03:31:46.626Z,51.31
2023-05-22T03:32:18.078Z,51.04
2023-05-22T03:32:49.553Z,51.07
2023-05-22T03:33:21.047Z,50.69
2023-05-22T03:33:52.573Z,51.31
2023-05-22T03:34:24.144Z,50.99
2023-05-22T03:34:55.603Z,50.93
2023-05-22T03:35:27.068Z,51.00
2023-05-22T03:35:58.531Z,50.90
2023-05-22T03:36:32.366Z,50.87
2023-05-22T03:37:03.930Z,50.92
2023-05-22T03:37:35.376Z,50.98
2023-05-22T03:38:06.823Z,50.71
2023-05-22T03:38:38.291Z,51.19
2023-05-22T03:39:09.737Z,51.34
2023-05-22T03:39:41.199Z,51.12
2023-05-22T03:40:12.670Z,51.04
2023-05-22T03:40:44.110Z,50.69
2023-05-22T03:41:15.559Z,50.95
2023-05-22T03:41:47.001Z,51.22
2023-05-22T03:42:18.451Z,51.27
2023-05-22T03:42:49.893Z,51.21
2023-05-22T03:43:21.352Z,51.05
2023-05-22T03:43:52.807Z,51.16
2023-05-22T03:44:24.250Z,51.01
2023-05-22T03:44:55.706Z,50.77
2023-05-22T03:45:27.154Z,50.89
2023-05-22T03:45:58.615Z,50.95
2023-05-22T03:46:30.107Z,51.05
2023-05-22T03:47:01.589Z,50.64
2023-05-22T03:47:33.033Z,50.80
2023-05-22T03:48:04.534Z,50.67
2023-05-22T03:48:36.002Z,51.21
2023-05-22T03:49:07.449Z,51.22
2023-05-22T03:49:38.884Z,50.98
2023-05-22T03:50:10.362Z,50.62
2023-05-22T03:50:41.985Z,51.20
2023-05-22T03:51:13.552Z,50.68
2023-05-22T03:51:44.995Z,50.68
2023-05-22T03:52:16.440Z,51.15
2023-05-22T03:52:47.907Z,50.70
2023-05-22T03:53:19.354Z,51.04
2023-05-22T03:53:50.791Z,51.20
2023-05-22T03:54:22.228Z,50.66
2023-05-22T03:54:53.833Z,51.11
2023-05-22T03:55:25.310Z,50.96
2023-05-22T03:55:56.754Z,50.95
2023-05-22T03:56:28.204Z,50.57
2023-05-22T03:56:59.654Z,50.91
2023-05-22T03:57:31.093Z,50.89
2023-05-22T03:58:02.544Z,50.56
2023-05-22T03:58:33.969Z,51.05
2023-05-22T03:59:05.439Z,50.68
2023-05-22T03:59:36.901Z,51.24
2023-05-22T04:00:08.337Z,51.16
2023-05-22T04:00:39.961Z,51.19
2023-05-22T04:01:11.567Z,50.93
2023-05-22T04:01:43.009Z,50.81
2023-05-22T04:02:14.487Z,50.95
2023-05-22T04:02:45.983Z,50.93
2023-05-22T04:03:17.552Z,50.69
2023-05-22T04:03:49.038Z,51.16
2023-05-22T04:04:20.487Z,51.02
2023-05-22T04:04:51.984Z,50.98
2023-05-22T04:05:23.521Z,51.00
2023-05-22T04:05:55.102Z,51.07
2023-05-22T04:06:26.554Z,50.93
2023-05-22T04:06:58.042Z,50.74
2023-05-22T04:07:29.560Z,50.94
2023-05-22T04:08:01.013Z,50.98
2023-05-22T04:08:32.614Z,50.82
2023-05-22T04:09:04.159Z,51.21
2023-05-22T04:09:35.613Z,50.80
2023-05-22T04:10:07.073Z,51.09
2023-05-22T04:10:38.801Z,50.86
2023-05-22T04:11:10.508Z,51.11
2023-05-22T04:11:41.947Z,50.78
2023-05-22T04:12:13.387Z,50.89
2023-05-22T04:12:44.836Z,50.91
2023-05-22T04:13:16.296Z,50.96
2023-05-22T04:13:47.732Z,50.88
2023-05-22T04:14:19.169Z,51.17
2023-05-22T04:14:50.606Z,51.53
2023-05-22T04:15:22.073Z,50.81
2023-05-22T04:15:53.604Z,51.12
2023-05-22T04:16:25.278Z,51.20
2023-05-22T04:16:56.846Z,50.71
2023-05-22T04:17:28.316Z,51.38
2023-05-22T04:17:59.866Z,51.11
2023-05-22T04:18:31.372Z,50.86
2023-05-22T04:19:02.851Z,50.58
2023-05-22T04:19:34.329Z,51.02
2023-05-22T04:20:05.851Z,50.90
2023-05-22T04:20:37.409Z,50.93
2023-05-22T04:21:09.040Z,51.16
2023-05-22T04:21:40.502Z,51.06
2023-05-22T04:22:11.940Z,51.24
2023-05-22T04:22:43.382Z,50.98
2023-05-22T04:23:14.823Z,51.06
2023-05-22T04:23:46.261Z,50.99
2023-05-22T04:24:17.704Z,50.72
2023-05-22T04:24:49.335Z,51.38
2023-05-22T04:25:20.849Z,51.04
2023-05-22T04:25:52.296Z,50.83
2023-05-22T04:26:23.734Z,50.98
2023-05-22T04:26:55.198Z,51.21
2023-05-22T04:27:26.636Z,50.83
2023-05-22T04:27:58.077Z,50.73
2023-05-22T04:28:29.541Z,50.88
2023-05-22T04:29:00.982Z,50.98
2023-05-22T04:29:32.438Z,50.63
2023-05-22T04:30:03.894Z,51.00
2023-05-22T04:30:35.352Z,50.72
2023-05-22T04:31:06.867Z,50.88
2023-05-22T04:31:38.417Z,50.59
2023-05-22T04:32:09.952Z,50.64
2023-05-22T04:32:41.404Z,51.63
2023-05-22T04:33:13.009Z,50.98
2023-05-22T04:33:44.484Z,51.41
2023-05-22T04:34:15.920Z,51.01
2023-05-22T04:34:47.360Z,51.12
2023-05-22T04:35:18.830Z,51.11
2023-05-22T04:35:50.271Z,50.73
2023-05-22T04:36:21.728Z,50.98
2023-05-22T04:36:53.195Z,51.02
2023-05-22T04:37:24.645Z,51.47
2023-05-22T04:37:56.088Z,51.04
2023-05-22T04:38:27.534Z,51.36
2023-05-22T04:38:58.972Z,51.50
2023-05-22T04:39:30.419Z,51.29
2023-05-22T04:40:01.866Z,51.75
2023-05-22T04:40:33.322Z,51.82
2023-05-22T04:41:04.806Z,51.79
2023-05-22T04:41:36.313Z,51.74
2023-05-22T04:42:07.745Z,52.32
2023-05-22T04:42:39.185Z,51.88
2023-05-22T04:43:10.646Z,51.96
2023-05-22T04:43:42.082Z,51.83
2023-05-22T04:44:13.535Z,51.99
2023-05-22T04:44:45.075Z,51.68
2023-05-22T04:45:16.521Z,51.69
2023-05-22T04:45:47.968Z,52.33
2023-05-22T04:46:19.477Z,51.96
2023-05-22T04:46:50.953Z,52.26
2023-05-22T04:47:22.499Z,51.46
2023-05-22T04:47:54.037Z,51.77
2023-05-22T04:48:25.501Z,52.28
2023-05-22T04:48:56.942Z,52.02
2023-05-22T04:49:28.389Z,52.14
2023-05-22T04:49:59.844Z,51.82
2023-05-22T04:50:31.306Z,51.77
2023-05-22T04:51:02.739Z,51.55
2023-05-22T04:51:34.195Z,52.19
2023-05-22T04:52:05.642Z,51.75
2023-05-22T04:52:37.072Z,51.88
2023-05-22T04:53:08.649Z,52.11
2023-05-22T04:53:40.091Z,51.95
2023-05-22T04:54:11.559Z,51.93
2023-05-22T04:54:42.999Z,52.11
2023-05-22T04:55:14.462Z,51.91
2023-05-22T04:55:45.913Z,52.07
2023-05-22T04:56:27.863Z,52.28
2023-05-22T04:57:06.565Z,51.85
2023-05-22T04:57:38.009Z,51.60
2023-05-22T04:58:09.462Z,52.11
2023-05-22T04:58:40.910Z,52.00
2023-05-22T04:59:12.386Z,52.40
2023-05-22T04:59:43.836Z,51.51
2023-05-22T05:00:15.299Z,51.69
2023-05-22T05:00:46.776Z,51.53
2023-05-22T05:01:18.239Z,51.82
2023-05-22T05:01:49.811Z,51.89
2023-05-22T05:02:21.264Z,51.98
2023-05-22T05:02:52.762Z,51.77
2023-05-22T05:03:24.256Z,52.09
2023-05-22T05:03:55.735Z,51.85
2023-05-22T05:04:27.240Z,52.04
2023-05-22T05:04:58.736Z,51.75
2023-05-22T05:05:30.191Z,51.82
2023-05-22T05:06:01.661Z,51.62
2023-05-22T05:06:33.094Z,51.94
2023-05-22T05:07:04.534Z,51.75
2023-05-22T05:07:35.982Z,51.88
2023-05-22T05:08:07.423Z,51.89
2023-05-22T05:08:38.859Z,51.99
2023-05-22T05:09:10.307Z,51.57
2023-05-22T05:09:41.786Z,51.09
2023-05-22T05:10:13.226Z,51.19
2023-05-22T05:10:44.669Z,51.54
2023-05-22T05:11:16.141Z,51.69
2023-05-22T05:11:47.587Z,51.82
2023-05-22T05:12:19.057Z,51.64
2023-05-22T05:12:50.502Z,51.99
2023-05-22T05:13:21.934Z,51.72
2023-05-22T05:13:53.382Z,51.59
2023-05-22T05:14:24.827Z,51.41
2023-05-22T05:14:56.269Z,51.34
2023-05-22T05:15:27.703Z,51.12
2023-05-22T05:15:59.187Z,51.61
2023-05-22T05:16:30.695Z,51.51
2023-05-22T05:17:02.271Z,51.24
2023-05-22T05:17:33.777Z,51.40
2023-05-22T05:18:05.293Z,51.25
2023-05-22T05:18:36.776Z,51.55
2023-05-22T05:19:08.281Z,51.92
2023-05-22T05:19:39.834Z,51.52
2023-05-22T05:20:11.451Z,51.90
2023-05-22T05:20:42.901Z,52.15
2023-05-22T05:21:14.366Z,51.24
2023-05-22T05:21:46.021Z,51.85
2023-05-22T05:22:17.614Z,51.52
2023-05-22T05:22:49.097Z,51.16
2023-05-22T05:23:20.528Z,51.45
2023-05-22T05:23:51.992Z,51.51
2023-05-22T05:24:23.464Z,51.79
2023-05-22T05:24:54.917Z,50.93
2023-05-22T05:25:26.394Z,51.62
2023-05-22T05:25:57.821Z,51.34
2023-05-22T05:26:29.273Z,51.29
2023-05-22T05:27:00.730Z,50.98
2023-05-22T05:27:32.170Z,51.24
2023-05-22T05:28:03.614Z,51.58
2023-05-22T05:28:35.065Z,50.92
2023-05-22T05:29:06.502Z,51.42
2023-05-22T05:29:37.935Z,51.50
2023-05-22T05:30:09.381Z,51.59
2023-05-22T05:30:41.154Z,51.66
2023-05-22T05:31:12.929Z,51.58
2023-05-22T05:31:44.604Z,51.33
2023-05-22T05:32:16.199Z,51.54
2023-05-22T05:32:47.775Z,51.09
2023-05-22T05:33:19.254Z,51.24
2023-05-22T05:33:50.705Z,51.15
2023-05-22T05:34:22.150Z,51.21
2023-05-22T05:34:53.592Z,51.33
2023-05-22T05:35:25.052Z,51.41
2023-05-22T05:35:56.496Z,51.01
2023-05-22T05:36:27.957Z,50.91
2023-05-22T05:36:59.397Z,50.85
2023-05-22T05:37:30.872Z,51.40
2023-05-22T05:38:02.329Z,51.21
2023-05-22T05:38:33.771Z,51.38
2023-05-22T05:39:05.204Z,51.25
2023-05-22T05:39:36.640Z,50.98
2023-05-22T05:40:08.076Z,51.25
2023-05-22T05:40:39.701Z,51.21
2023-05-22T05:41:11.405Z,51.19
2023-05-22T05:41:42.886Z,51.38
2023-05-22T05:42:14.344Z,50.46
2023-05-22T05:42:45.797Z,50.97
2023-05-22T05:43:17.247Z,51.18
2023-05-22T05:43:48.692Z,51.13
2023-05-22T05:44:20.139Z,51.17
2023-05-22T05:44:51.584Z,51.51
2023-05-22T05:45:23.124Z,51.38
2023-05-22T05:45:54.612Z,51.16
2023-05-22T05:46:26.113Z,51.75
2023-05-22T05:46:57.602Z,50.65
2023-05-22T05:47:29.082Z,50.31
2023-05-22T05:48:00.598Z,50.35
2023-05-22T05:48:32.051Z,50.03
2023-05-22T05:49:03.522Z,50.07
2023-05-22T05:49:35.782Z,49.92
2023-05-22T05:50:07.451Z,50.28
2023-05-22T05:50:39.333Z,50.31
2023-05-22T05:51:11.004Z,50.22
2023-05-22T05:51:42.438Z,50.11
2023-05-22T05:52:13.907Z,50.53
2023-05-22T05:52:45.355Z,50.05
2023-05-22T05:53:16.808Z,50.28
2023-05-22T05:53:48.265Z,49.87
2023-05-22T05:54:19.733Z,50.01
2023-05-22T05:54:51.165Z,50.01
2023-05-22T05:55:22.602Z,50.35
2023-05-22T05:55:54.228Z,50.28
2023-05-22T05:56:25.678Z,50.05
2023-05-22T05:56:57.121Z,50.26
2023-05-22T05:57:28.601Z,50.26
2023-05-22T05:58:00.035Z,49.89
2023-05-22T05:58:31.464Z,49.87
2023-05-22T05:59:02.918Z,50.35
2023-05-22T05:59:34.368Z,50.20
2023-05-22T06:00:05.859Z,50.38
2023-05-22T06:00:37.395Z,50.19
2023-05-22T06:01:08.966Z,49.78
2023-05-22T06:01:40.510Z,50.16
2023-05-22T06:02:12.065Z,50.81
2023-05-22T06:02:43.673Z,51.27
2023-05-22T06:03:15.283Z,50.80
2023-05-22T06:03:46.990Z,51.28
2023-05-22T06:04:18.664Z,51.06
2023-05-22T06:04:50.114Z,51.25
2023-05-22T06:05:21.645Z,51.00
2023-05-22T06:05:53.157Z,51.10
2023-05-22T06:06:24.672Z,51.24
2023-05-22T06:06:56.134Z,50.88
2023-05-22T06:07:27.576Z,50.87
2023-05-22T06:07:59.027Z,51.08
2023-05-22T06:08:30.502Z,51.02
2023-05-22T06:09:01.942Z,50.92
2023-05-22T06:09:33.435Z,51.06
2023-05-22T06:10:04.967Z,50.96
2023-05-22T06:10:36.420Z,50.82
2023-05-22T06:11:07.869Z,51.09
2023-05-22T06:11:39.309Z,50.96
2023-05-22T06:12:10.750Z,50.75
2023-05-22T06:12:42.191Z,50.91
2023-05-22T06:13:13.653Z,50.64
2023-05-22T06:13:45.090Z,50.59
2023-05-22T06:14:16.572Z,50.73
2023-05-22T06:14:48.027Z,50.76
2023-05-22T06:15:19.460Z,50.70
2023-05-22T06:15:51.001Z,50.59
2023-05-22T06:16:22.501Z,50.51
2023-05-22T06:16:53.975Z,50.88
2023-05-22T06:17:25.441Z,50.34
2023-05-22T06:17:56.933Z,50.52
2023-05-22T06:18:28.546Z,50.78
2023-05-22T06:19:00.184Z,50.99
2023-05-22T06:19:31.788Z,51.04
2023-05-22T06:20:03.258Z,50.53
2023-05-22T06:20:34.698Z,50.60
2023-05-22T06:21:06.156Z,50.88
2023-05-22T06:21:37.621Z,50.74
2023-05-22T06:22:09.144Z,51.12
2023-05-22T06:22:40.583Z,50.49
2023-05-22T06:23:12.026Z,50.80
2023-05-22T06:23:43.492Z,51.12
2023-05-22T06:24:14.955Z,50.78
2023-05-22T06:24:46.390Z,50.59
2023-05-22T06:25:17.825Z,50.78
2023-05-22T06:25:49.261Z,50.77
2023-05-22T06:26:20.716Z,50.19
2023-05-22T06:26:52.151Z,51.02
2023-05-22T06:27:23.632Z,51.04
2023-05-22T06:27:55.065Z,50.91
2023-05-22T06:28:26.499Z,50.61
2023-05-22T06:28:57.948Z,50.66
2023-05-22T06:29:29.402Z,50.47
2023-05-22T06:30:00.892Z,50.79
2023-05-22T06:30:40.124Z,50.87
2023-05-22T06:31:12.005Z,50.69
2023-05-22T06:31:43.478Z,50.98
2023-05-22T06:32:14.978Z,51.03
2023-05-22T06:32:46.829Z,51.13
2023-05-22T06:33:18.462Z,50.75
2023-05-22T06:33:50.087Z,50.94
2023-05-22T06:34:21.711Z,50.63
2023-05-22T06:34:53.250Z,51.01
2023-05-22T06:35:24.691Z,50.85
2023-05-22T06:35:56.128Z,50.60
2023-05-22T06:36:27.580Z,50.77
2023-05-22T06:36:59.036Z,50.61
2023-05-22T06:37:30.498Z,50.83
2023-05-22T06:38:01.983Z,50.75
2023-05-22T06:38:33.470Z,50.48
2023-05-22T06:39:05.010Z,50.73
2023-05-22T06:39:36.500Z,50.81
2023-05-22T06:40:07.977Z,50.59
2023-05-22T06:40:39.583Z,50.89
2023-05-22T06:41:11.203Z,50.89
2023-05-22T06:41:42.637Z,51.17
2023-05-22T06:42:14.079Z,50.55
2023-05-22T06:42:45.701Z,50.44
2023-05-22T06:43:17.162Z,50.75
2023-05-22T06:43:48.748Z,50.95
2023-05-22T06:44:20.231Z,50.33
2023-05-22T06:44:51.667Z,50.64
2023-05-22T06:45:23.109Z,50.87
2023-05-22T06:45:54.554Z,50.57